Bonaire, Georgia
Current Conditions -  °F | °C
As of 6:58 PM on Monday 20 Oct 2014 (Local Time) from KWRB Reporting Station
Clear Clear  
Wind Chill: 71°   Ceiling: Unl
Heat Index: 71°   Visibility: 10mi
Dew Point: 56°   Wind: 0mph
Humidity: 59%   Direction: NA
Pressure: 29.98"   Gusts: NA
Location:  32.54°N, 83.6°W
Report Text: KWRB 202258Z AUTO 00000KT 10SM CLR 22/13 A2998 RMK AO2 SLP154 T02150131
Loading
Personal Weather Stations






























Interactive Weather Map New forecast layout! Learn more

10-Day Weather Forecast

Advertisements
Track Severe Weather on mobile